Time;durP1;ratioP1;P1;durP2;ratioP2;P2;SDS_P1;SDS_P2;PMS_P1;PMS_P2;Temp;Humidity;BMP_temperature;BMP_pressure;BME280_temperature;BME280_humidity;BME280_pressure;Samples;Min_cycle;Max_cycle;Signal;HPM_P1;HPM_P2
2022/06/08 00:02:06;;;;;;;23.70;11.20;;;11.50;99.90;;;;;;5038214;28;20049;-74
2022/06/08 00:04:32;;;;;;;18.20;10.70;;;11.50;99.90;;;;;;5037961;28;20432;-73
2022/06/08 00:06:58;;;;;;;23.50;11.45;;;11.40;99.90;;;;;;5036925;28;20103;-76
2022/06/08 00:09:23;;;;;;;17.40;10.55;;;11.50;99.90;;;;;;5037864;28;20476;-74
2022/06/08 00:11:49;;;;;;;20.17;11.93;;;11.50;99.90;;;;;;5037815;28;20042;-73
2022/06/08 00:14:16;;;;;;;22.42;12.50;;;11.50;99.90;;;;;;5041005;28;20063;-74
2022/06/08 00:16:41;;;;;;;16.65;10.57;;;11.60;99.90;;;;;;5057612;28;20053;-75
2022/06/08 00:19:07;;;;;;;18.80;10.55;;;11.60;99.90;;;;;;5057604;28;20036;-74
2022/06/08 00:21:33;;;;;;;16.63;11.60;;;11.60;99.90;;;;;;5056754;28;20044;-73
2022/06/08 00:23:59;;;;;;;19.00;11.07;;;11.70;99.90;;;;;;5057446;28;20037;-72
2022/06/08 00:26:24;;;;;;;17.92;12.30;;;11.70;99.90;;;;;;5057210;28;20044;-77
2022/06/08 00:28:51;;;;;;;17.25;11.80;;;11.70;99.90;;;;;;5057359;28;20045;-74
2022/06/08 00:31:17;;;;;;;18.63;11.90;;;11.60;99.90;;;;;;5057580;28;20041;-73
2022/06/08 00:33:43;;;;;;;22.58;13.65;;;11.60;99.90;;;;;;5057676;28;20052;-77
2022/06/08 00:36:09;;;;;;;26.67;12.65;;;11.60;99.90;;;;;;5056369;28;20047;-74
2022/06/08 00:38:35;;;;;;;18.75;12.20;;;11.60;99.90;;;;;;5056951;28;20077;-72
2022/06/08 00:41:01;;;;;;;24.85;13.00;;;11.70;99.90;;;;;;5057133;28;20125;-75
2022/06/08 00:43:26;;;;;;;26.85;13.18;;;11.70;99.90;;;;;;5057254;28;20183;-74
2022/06/08 00:45:53;;;;;;;22.33;12.60;;;11.60;99.90;;;;;;5057095;28;20519;-75
2022/06/08 00:48:19;;;;;;;23.67;12.10;;;11.60;99.90;;;;;;5056726;28;20451;-74
2022/06/08 00:50:49;;;;;;;25.35;12.95;;;11.60;99.90;;;;;;5055910;28;20045;-73
2022/06/08 00:53:19;;;;;;;18.98;12.48;;;11.60;99.90;;;;;;5057024;28;20037;-73
2022/06/08 00:55:45;;;;;;;20.10;12.18;;;11.60;99.90;;;;;;5057088;28;20060;-76
2022/06/08 00:58:18;;;;;;;24.23;13.63;;;11.60;99.90;;;;;;5039678;28;20044;-72
2022/06/08 01:00:45;;;;;;;22.65;13.35;;;11.60;99.90;;;;;;5056969;28;20053;-74
2022/06/08 01:03:13;;;;;;;27.23;15.32;;;11.60;99.90;;;;;;5056527;28;20076;-72
2022/06/08 01:05:53;;;;;;;22.85;13.48;;;11.60;99.90;;;;;;5055786;28;20428;-73
2022/06/08 01:08:35;;;;;;;20.98;13.38;;;11.50;99.90;;;;;;5056620;28;20518;-72
2022/06/08 01:11:26;;;;;;;18.40;12.82;;;11.50;99.90;;;;;;5056407;28;20140;-74
2022/06/08 01:13:59;;;;;;;19.42;12.40;;;11.50;99.90;;;;;;5056508;28;20061;-77
2022/06/08 01:16:25;;;;;;;21.65;14.70;;;11.50;99.90;;;;;;5056719;28;20352;-72
2022/06/08 01:18:51;;;;;;;20.40;13.90;;;11.60;99.90;;;;;;5056012;28;20052;-76
2022/06/08 01:21:22;;;;;;;19.85;14.63;;;11.50;99.90;;;;;;5041384;28;20041;-75
2022/06/08 01:24:03;;;;;;;20.35;14.80;;;11.50;99.90;;;;;;5036660;28;20063;-74
2022/06/08 01:26:57;;;;;;;22.60;13.23;;;11.60;99.90;;;;;;5036463;28;20455;-74
2022/06/08 01:29:36;;;;;;;19.42;14.27;;;11.60;99.90;;;;;;5036042;28;20582;-74
2022/06/08 01:32:07;;;;;;;22.85;13.73;;;11.70;99.90;;;;;;5036327;28;20088;-75
2022/06/08 01:34:55;;;;;;;17.52;14.05;;;11.60;99.90;;;;;;5046478;28;20048;-75
2022/06/08 01:37:38;;;;;;;27.38;14.13;;;11.60;99.90;;;;;;5056094;28;20067;-72
2022/06/08 01:40:19;;;;;;;16.88;13.73;;;11.70;99.90;;;;;;5055983;28;20067;-73
2022/06/08 01:43:22;;;;;;;24.90;13.90;;;11.80;99.90;;;;;;5055956;28;20060;-72
2022/06/08 01:46:11;;;;;;;17.55;13.43;;;11.80;99.90;;;;;;5056027;28;20049;-74
2022/06/08 01:48:55;;;;;;;21.95;14.90;;;11.80;99.90;;;;;;5055064;28;20044;-73
2022/06/08 01:51:39;;;;;;;27.88;15.32;;;11.80;99.90;;;;;;5056015;28;20056;-75
2022/06/08 01:54:26;;;;;;;21.63;14.35;;;11.90;99.90;;;;;;5055704;28;20048;-74
2022/06/08 01:57:21;;;;;;;23.98;13.95;;;11.90;99.90;;;;;;5055105;28;20427;-76
2022/06/08 01:59:52;;;;;;;20.67;15.07;;;11.90;99.90;;;;;;5055335;28;20490;-73
2022/06/08 02:02:35;;;;;;;23.48;16.23;;;11.90;99.90;;;;;;5055799;28;20190;-74
2022/06/08 02:05:16;;;;;;;20.13;15.45;;;11.90;99.90;;;;;;5055675;28;20070;-73
2022/06/08 02:07:48;;;;;;;19.20;14.77;;;11.90;99.90;;;;;;5055351;28;20037;-75
2022/06/08 02:10:32;;;;;;;23.42;16.05;;;12.00;99.90;;;;;;5054649;28;20057;-76
2022/06/08 02:13:07;;;;;;;22.58;16.40;;;11.90;99.90;;;;;;5037667;28;20048;-75
2022/06/08 02:15:41;;;;;;;21.88;16.60;;;11.90;99.90;;;;;;5055577;28;20117;-75
2022/06/08 02:18:13;;;;;;;24.17;16.52;;;11.90;99.90;;;;;;5055550;28;20057;-74
2022/06/08 02:20:46;;;;;;;26.83;15.77;;;12.00;99.90;;;;;;5054639;28;20490;-73
2022/06/08 02:23:26;;;;;;;21.02;16.30;;;11.90;99.90;;;;;;5054165;28;20498;-72
2022/06/08 02:26:01;;;;;;;27.33;16.75;;;11.90;99.90;;;;;;5055444;28;20041;-76
2022/06/08 02:28:43;;;;;;;24.40;17.73;;;11.90;99.90;;;;;;5055379;28;20045;-73
2022/06/08 02:31:23;;;;;;;22.38;16.17;;;11.90;99.90;;;;;;5055119;28;20052;-73
2022/06/08 02:36:49;;;;;;;21.67;17.08;;;11.90;99.90;;;;;;5054843;28;20127;-73
2022/06/08 02:39:28;;;;;;;23.67;16.27;;;11.80;99.90;;;;;;5035558;28;20062;-76
2022/06/08 02:41:58;;;;;;;26.05;16.15;;;11.70;99.90;;;;;;5038907;28;20083;-73
2022/06/08 02:44:29;;;;;;;21.75;15.50;;;11.80;99.90;;;;;;5054409;28;20558;-75
2022/06/08 02:47:15;;;;;;;24.17;16.02;;;11.70;99.90;;;;;;5054858;28;20081;-72
2022/06/08 02:49:41;;;;;;;25.63;17.30;;;11.80;99.90;;;;;;5054517;28;20048;-73
2022/06/08 02:52:18;;;;;;;24.17;17.13;;;11.80;99.90;;;;;;5054898;28;20090;-74
2022/06/08 02:54:44;;;;;;;26.17;17.00;;;11.70;99.90;;;;;;5036751;28;20119;-75
2022/06/08 02:57:41;;;;;;;25.20;17.35;;;11.60;99.90;;;;;;5054118;28;20080;-72
2022/06/08 03:00:40;;;;;;;23.35;17.30;;;11.60;99.90;;;;;;5054500;28;20055;-76
2022/06/08 03:03:23;;;;;;;22.67;16.45;;;11.60;99.90;;;;;;5054573;28;20344;-73
2022/06/08 03:05:55;;;;;;;26.20;17.95;;;11.60;99.90;;;;;;5054924;28;20076;-72
2022/06/08 03:08:26;;;;;;;21.80;16.33;;;11.60;99.90;;;;;;5054054;28;20459;-76
2022/06/08 03:10:53;;;;;;;21.70;16.40;;;11.60;99.90;;;;;;5053532;28;20040;-74
2022/06/08 03:13:40;;;;;;;20.15;16.20;;;11.60;99.90;;;;;;5036431;28;20048;-74
2022/06/08 03:16:08;;;;;;;24.17;16.50;;;11.60;99.90;;;;;;5054549;28;20053;-73
2022/06/08 03:18:35;;;;;;;27.25;17.35;;;11.70;99.90;;;;;;5054580;28;20048;-73
2022/06/08 03:21:03;;;;;;;23.08;17.58;;;11.60;99.90;;;;;;5054327;28;20136;-72
2022/06/08 03:23:29;;;;;;;19.38;15.77;;;11.70;99.90;;;;;;5054467;28;20037;-74
2022/06/08 03:25:55;;;;;;;21.60;17.08;;;11.80;99.90;;;;;;5053719;28;20051;-73
2022/06/08 03:28:21;;;;;;;20.80;16.00;;;11.70;99.90;;;;;;5053935;28;20045;-73
2022/06/08 03:30:46;;;;;;;23.10;16.08;;;11.80;99.90;;;;;;5037113;28;20059;-73
2022/06/08 03:33:13;;;;;;;20.85;15.48;;;11.80;99.90;;;;;;5037652;28;20367;-75
2022/06/08 03:35:39;;;;;;;23.25;17.20;;;11.80;99.90;;;;;;5058529;28;20466;-72
2022/06/08 03:38:05;;;;;;;20.13;15.55;;;11.70;99.90;;;;;;5058378;28;20124;-73
2022/06/08 03:40:31;;;;;;;17.92;15.38;;;11.80;99.90;;;;;;5057031;28;20049;-75
2022/06/08 03:42:57;;;;;;;23.48;16.08;;;11.70;99.90;;;;;;5058291;28;20071;-76
2022/06/08 03:45:25;;;;;;;26.75;17.13;;;11.80;99.90;;;;;;5058325;28;20037;-73
2022/06/08 03:47:53;;;;;;;24.08;16.42;;;11.90;99.90;;;;;;5057964;28;20477;-75
2022/06/08 03:50:23;;;;;;;20.05;16.45;;;11.80;99.90;;;;;;5058138;28;20051;-75
2022/06/08 03:52:55;;;;;;;23.83;17.23;;;11.90;99.90;;;;;;5058171;28;20049;-75
2022/06/08 03:55:23;;;;;;;23.25;16.92;;;11.90;99.90;;;;;;5057181;28;20406;-73
2022/06/08 03:57:50;;;;;;;22.75;16.95;;;11.90;99.90;;;;;;5058341;28;20120;-75
2022/06/08 04:00:18;;;;;;;22.08;17.45;;;11.90;99.90;;;;;;5058330;28;20045;-76
2022/06/08 04:02:46;;;;;;;23.88;17.10;;;11.90;99.90;;;;;;5057948;28;20328;-72
2022/06/08 04:05:12;;;;;;;23.17;17.48;;;12.10;99.90;;;;;;5057979;28;20372;-74
2022/06/08 04:07:38;;;;;;;23.42;17.38;;;12.10;99.90;;;;;;5056996;28;20053;-75
2022/06/08 04:10:04;;;;;;;27.90;18.27;;;12.10;99.90;;;;;;5057710;28;20053;-76
2022/06/08 04:12:31;;;;;;;22.85;17.80;;;12.10;99.90;;;;;;5057986;28;20131;-72
2022/06/08 04:14:57;;;;;;;24.38;17.77;;;12.20;99.90;;;;;;5039766;28;20382;-74
2022/06/08 04:17:22;;;;;;;24.02;16.77;;;12.10;99.90;;;;;;5057363;28;20061;-72
2022/06/08 04:19:48;;;;;;;23.23;17.30;;;12.10;99.90;;;;;;5057665;28;20036;-74
2022/06/08 04:22:19;;;;;;;25.45;17.45;;;12.10;99.90;;;;;;5057094;28;20080;-75
2022/06/08 04:24:45;;;;;;;27.75;18.42;;;12.10;99.90;;;;;;5057473;28;20080;-73
2022/06/08 04:27:11;;;;;;;26.90;18.20;;;12.20;99.90;;;;;;5057659;28;20041;-72
2022/06/08 04:29:37;;;;;;;24.33;18.17;;;12.20;99.90;;;;;;5049793;28;20041;-74
2022/06/08 04:32:05;;;;;;;24.00;18.98;;;12.30;99.90;;;;;;5019973;28;20459;-72
2022/06/08 04:34:30;;;;;;;24.70;18.92;;;12.30;99.90;;;;;;5020300;28;20064;-74
2022/06/08 04:36:56;;;;;;;24.50;19.55;;;12.30;99.90;;;;;;5037501;28;20045;-73
2022/06/08 04:39:21;;;;;;;28.92;19.25;;;12.30;99.90;;;;;;5037282;28;20120;-73
2022/06/08 04:41:47;;;;;;;26.55;19.45;;;12.40;99.90;;;;;;5037296;28;20462;-76
2022/06/08 04:44:13;;;;;;;28.15;20.38;;;12.40;99.90;;;;;;5004086;28;20061;-75
2022/06/08 04:46:38;;;;;;;26.15;19.60;;;12.60;99.90;;;;;;5038518;28;20045;-73
2022/06/08 04:49:04;;;;;;;30.38;20.23;;;12.60;99.90;;;;;;5036987;28;20048;-73
2022/06/08 04:51:30;;;;;;;30.10;20.25;;;12.60;99.90;;;;;;5037390;28;20353;-74
2022/06/08 04:53:57;;;;;;;26.88;20.90;;;12.80;99.90;;;;;;5037141;28;20041;-75
2022/06/08 04:56:23;;;;;;;27.38;20.25;;;12.70;99.90;;;;;;5037053;28;20060;-73
2022/06/08 04:58:48;;;;;;;30.95;22.90;;;12.80;99.90;;;;;;5049250;28;20049;-75
2022/06/08 05:01:14;;;;;;;30.30;23.25;;;12.90;99.90;;;;;;5055603;28;20053;-74
2022/06/08 05:03:40;;;;;;;28.77;21.33;;;13.00;99.90;;;;;;5055967;28;20048;-75
2022/06/08 05:06:06;;;;;;;30.23;23.10;;;13.10;99.90;;;;;;5056558;28;20041;-75
2022/06/08 05:08:34;;;;;;;29.13;21.92;;;13.00;99.90;;;;;;5056564;28;20194;-73
2022/06/08 05:11:04;;;;;;;30.67;21.73;;;13.20;99.90;;;;;;5056781;28;20110;-73
2022/06/08 05:13:30;;;;;;;30.02;22.13;;;13.10;99.90;;;;;;5055310;28;20049;-75
2022/06/08 05:15:55;;;;;;;30.27;23.05;;;13.20;99.90;;;;;;5055434;28;20053;-75
2022/06/08 05:18:22;;;;;;;34.90;23.10;;;13.30;99.90;;;;;;5056311;28;20124;-76
2022/06/08 05:20:48;;;;;;;30.02;22.98;;;13.30;99.90;;;;;;5039398;28;20076;-76
2022/06/08 05:23:19;;;;;;;34.45;23.35;;;13.30;99.90;;;;;;5056386;28;20138;-74
2022/06/08 05:25:45;;;;;;;30.92;23.83;;;13.40;99.90;;;;;;5056785;28;20467;-74
2022/06/08 05:28:13;;;;;;;29.20;22.38;;;13.40;99.90;;;;;;5056285;28;20044;-77
2022/06/08 05:30:40;;;;;;;33.15;23.00;;;13.50;99.90;;;;;;5055299;28;20103;-70
2022/06/08 05:33:06;;;;;;;30.15;23.73;;;13.50;99.90;;;;;;5055282;28;20091;-74
2022/06/08 05:35:32;;;;;;;31.30;23.48;;;13.60;99.90;;;;;;5039375;28;20049;-78
2022/06/08 05:37:58;;;;;;;34.25;23.90;;;13.60;99.90;;;;;;5056165;28;20443;-74
2022/06/08 05:40:28;;;;;;;32.42;22.65;;;13.70;99.90;;;;;;5055720;28;20485;-71
2022/06/08 05:42:54;;;;;;;28.70;22.38;;;13.80;99.90;;;;;;5054875;28;20053;-72
2022/06/08 05:45:23;;;;;;;31.52;23.40;;;13.90;99.90;;;;;;5038347;28;20095;-72
2022/06/08 05:47:49;;;;;;;30.70;22.55;;;13.90;99.90;;;;;;5054167;28;20049;-72
2022/06/08 05:50:16;;;;;;;30.77;22.13;;;14.00;99.90;;;;;;5055688;28;20123;-72
2022/06/08 05:52:41;;;;;;;33.83;22.75;;;14.10;99.90;;;;;;5055700;28;20420;-71
2022/06/08 05:55:09;;;;;;;29.33;22.75;;;14.10;99.90;;;;;;5037796;28;20076;-70
2022/06/08 05:57:36;;;;;;;31.95;21.30;;;14.20;99.90;;;;;;5034721;28;20132;-71
2022/06/08 06:00:07;;;;;;;29.77;21.33;;;14.20;99.90;;;;;;5036006;28;20049;-72
2022/06/08 06:02:33;;;;;;;26.13;19.88;;;14.40;99.90;;;;;;5035814;28;20172;-73
2022/06/08 06:04:58;;;;;;;29.77;21.25;;;14.40;99.90;;;;;;5035822;28;20467;-74
2022/06/08 06:07:25;;;;;;;30.17;21.95;;;14.40;99.90;;;;;;5036907;28;20037;-70
2022/06/08 06:09:51;;;;;;;28.73;21.98;;;14.50;99.90;;;;;;5037925;28;20443;-71
2022/06/08 06:12:17;;;;;;;27.98;21.35;;;14.50;99.90;;;;;;5055392;28;20044;-71
2022/06/08 06:14:43;;;;;;;29.95;20.70;;;14.60;99.90;;;;;;5055574;28;20076;-73
2022/06/08 06:17:08;;;;;;;25.95;20.00;;;14.70;99.90;;;;;;5054676;28;20045;-72
2022/06/08 06:19:34;;;;;;;28.30;19.70;;;14.70;99.90;;;;;;5055549;28;20455;-74
2022/06/08 06:22:01;;;;;;;27.98;19.88;;;14.80;99.90;;;;;;5055066;28;20127;-71
2022/06/08 06:24:27;;;;;;;26.48;19.27;;;14.90;99.90;;;;;;5055018;28;20045;-75
2022/06/08 06:26:53;;;;;;;25.08;19.67;;;14.90;99.90;;;;;;5055175;28;20048;-73
2022/06/08 06:29:19;;;;;;;25.83;19.27;;;15.00;99.90;;;;;;5055073;28;20096;-70
2022/06/08 06:31:53;;;;;;;27.15;19.42;;;15.10;99.90;;;;;;5053569;28;20049;-72
2022/06/08 06:34:22;;;;;;;23.75;18.52;;;15.30;99.90;;;;;;5055219;28;20099;-73
2022/06/08 06:36:48;;;;;;;25.10;19.40;;;15.20;99.90;;;;;;5055184;28;20052;-74
2022/06/08 06:39:14;;;;;;;22.85;17.98;;;15.40;99.90;;;;;;5037170;28;20053;-73
2022/06/08 06:41:42;;;;;;;23.77;18.77;;;15.40;99.90;;;;;;5054829;28;20466;-72
2022/06/08 06:44:07;;;;;;;24.80;16.38;;;15.60;99.90;;;;;;5054352;28;20048;-70
2022/06/08 06:46:33;;;;;;;22.13;17.08;;;15.60;99.90;;;;;;5054390;28;20036;-71
2022/06/08 06:48:58;;;;;;;21.70;16.45;;;15.70;99.90;;;;;;5055027;28;20487;-72
2022/06/08 06:51:24;;;;;;;29.55;16.67;;;15.70;99.90;;;;;;5054755;28;20095;-70
2022/06/08 06:53:50;;;;;;;22.98;16.70;;;15.70;99.90;;;;;;5036968;28;20056;-71
2022/06/08 06:56:15;;;;;;;19.08;15.20;;;15.70;99.90;;;;;;5054556;28;20045;-72
2022/06/08 06:58:41;;;;;;;22.60;16.50;;;15.80;99.90;;;;;;5054515;28;20045;-71
2022/06/08 07:01:07;;;;;;;22.60;16.42;;;15.80;99.90;;;;;;5054812;28;20032;-73
2022/06/08 07:03:33;;;;;;;22.35;16.48;;;15.80;99.90;;;;;;5053670;28;20584;-71
2022/06/08 07:05:59;;;;;;;19.52;16.27;;;15.80;99.90;;;;;;5054619;28;20045;-72
2022/06/08 07:08:25;;;;;;;23.63;17.33;;;15.80;99.90;;;;;;5053956;28;20107;-73
2022/06/08 07:13:35;;;;;;;22.42;17.08;;;15.90;99.90;;;;;;5054228;28;20052;-71
2022/06/08 07:16:01;;;;;;;20.33;16.08;;;16.00;99.90;;;;;;5054621;28;20049;-73
2022/06/08 07:18:27;;;;;;;22.48;16.95;;;16.00;99.90;;;;;;5053966;28;20040;-73
2022/06/08 07:20:53;;;;;;;24.20;17.08;;;16.10;99.90;;;;;;5053720;28;20398;-74
2022/06/08 07:23:19;;;;;;;19.13;15.38;;;16.20;99.90;;;;;;5054403;28;20033;-71
2022/06/08 07:25:44;;;;;;;22.02;15.93;;;16.30;99.90;;;;;;5054577;28;20049;-72
2022/06/08 07:28:10;;;;;;;22.58;15.88;;;16.40;99.90;;;;;;5054473;28;20044;-71
2022/06/08 07:30:36;;;;;;;21.10;15.98;;;16.50;99.90;;;;;;5054369;28;20051;-72
2022/06/08 07:33:02;;;;;;;22.33;16.33;;;16.50;99.90;;;;;;5053980;28;20061;-73
2022/06/08 07:35:28;;;;;;;20.15;15.93;;;16.50;99.90;;;;;;5054366;28;20048;-72
2022/06/08 07:37:54;;;;;;;21.15;15.52;;;16.50;99.90;;;;;;5054556;28;20044;-72
2022/06/08 07:40:20;;;;;;;19.52;15.80;;;16.50;99.90;;;;;;5054482;28;20049;-74
2022/06/08 07:42:45;;;;;;;21.10;15.05;;;16.50;99.90;;;;;;5054069;28;20049;-73
2022/06/08 07:45:12;;;;;;;21.15;15.65;;;16.60;99.90;;;;;;5054594;28;20123;-71
2022/06/08 07:49:36;;;;;;;20.92;15.95;;;16.70;99.90;;;;;;5053526;28;20067;-72
2022/06/08 07:50:26;;;;;;;22.35;16.20;;;16.70;99.90;;;;;;5052956;28;20395;-69
2022/06/08 07:52:51;;;;;;;18.80;14.85;;;16.80;99.90;;;;;;5054543;28;20045;-71
2022/06/08 07:55:17;;;;;;;21.25;16.80;;;16.90;99.90;;;;;;5054222;28;20367;-73
2022/06/08 07:57:42;;;;;;;20.35;15.82;;;16.90;99.90;;;;;;5054350;28;20048;-74
2022/06/08 08:00:10;;;;;;;18.83;14.93;;;17.00;99.90;;;;;;5036725;28;20049;-71
2022/06/08 08:02:36;;;;;;;18.33;15.20;;;17.10;99.90;;;;;;5053294;28;20041;-70
2022/06/08 08:05:02;;;;;;;19.13;14.57;;;17.10;99.90;;;;;;5054024;28;20125;-74
2022/06/08 08:07:28;;;;;;;19.85;14.63;;;17.10;99.90;;;;;;5054076;28;20420;-73
2022/06/08 08:09:53;;;;;;;14.98;12.30;;;17.10;99.90;;;;;;5054304;28;20103;-72
2022/06/08 08:12:19;;;;;;;14.52;11.73;;;17.30;99.90;;;;;;5054214;28;20406;-70
2022/06/08 08:14:45;;;;;;;14.80;10.70;;;17.40;99.90;;;;;;5053224;28;20053;-69
2022/06/08 08:17:10;;;;;;;13.30;9.40;;;17.40;99.90;;;;;;5053111;28;20040;-71
2022/06/08 08:19:38;;;;;;;16.52;7.88;;;17.40;99.90;;;;;;5055003;28;20055;-72
2022/06/08 08:22:04;;;;;;;10.18;7.43;;;17.60;99.90;;;;;;5057554;28;20048;-71
2022/06/08 08:24:31;;;;;;;11.35;7.45;;;17.70;99.90;;;;;;5057631;28;20045;-70
2022/06/08 08:26:57;;;;;;;8.52;6.50;;;17.80;99.90;;;;;;5057333;28;20086;-72
2022/06/08 08:29:22;;;;;;;10.38;6.97;;;17.90;99.90;;;;;;5056956;28;20045;-76
2022/06/08 08:31:49;;;;;;;9.98;6.88;;;17.80;99.90;;;;;;5057419;28;20418;-70
2022/06/08 08:34:15;;;;;;;11.50;7.72;;;17.90;99.90;;;;;;5057444;28;20451;-70
2022/06/08 08:36:41;;;;;;;11.35;7.07;;;17.80;99.90;;;;;;5057260;28;20056;-72
2022/06/08 08:39:07;;;;;;;9.68;7.05;;;17.70;99.90;;;;;;5057280;28;20047;-71
2022/06/08 08:44:35;;;;;;;10.57;6.32;;;17.90;99.90;;;;;;5056815;28;20535;-72
2022/06/08 08:47:25;;;;;;;8.18;6.18;;;18.20;99.90;;;;;;5056926;28;20442;-69
2022/06/08 08:49:57;;;;;;;6.60;5.00;;;18.10;99.90;;;;;;5040026;28;20059;-69
2022/06/08 08:52:24;;;;;;;7.88;5.55;;;18.10;99.90;;;;;;5056992;28;20087;-71
2022/06/08 08:54:58;;;;;;;11.70;5.22;;;18.00;99.90;;;;;;5056286;28;20045;-69
2022/06/08 08:57:53;;;;;;;10.23;6.28;;;18.00;99.90;;;;;;5057412;28;20423;-72
2022/06/08 09:00:24;;;;;;;7.80;4.90;;;18.00;99.90;;;;;;5056864;28;20045;-70
2022/06/08 09:05:45;;;;;;;9.18;5.80;;;18.00;99.90;;;;;;5056740;28;20048;-69
2022/06/08 09:08:11;;;;;;;9.77;6.45;;;18.10;99.90;;;;;;5056028;28;20041;-72
2022/06/08 09:10:38;;;;;;;7.60;5.05;;;18.00;99.90;;;;;;5056606;28;20037;-69
2022/06/08 09:13:05;;;;;;;8.18;5.80;;;18.20;99.90;;;;;;5056315;28;20444;-73
2022/06/08 09:15:48;;;;;;;9.20;5.15;;;18.30;99.90;;;;;;5038619;28;20171;-71
2022/06/08 09:18:35;;;;;;;10.68;5.57;;;18.50;99.90;;;;;;5056647;28;20214;-72
2022/06/08 09:21:21;;;;;;;7.72;5.45;;;18.60;99.90;;;;;;5056617;28;20041;-69
2022/06/08 09:23:50;;;;;;;9.98;5.30;;;18.70;99.90;;;;;;5038501;28;20447;-71
2022/06/08 09:26:29;;;;;;;12.85;5.10;;;18.60;99.90;;;;;;5055838;28;20462;-72
2022/06/08 09:28:59;;;;;;;7.60;5.53;;;18.70;99.90;;;;;;5056290;28;20049;-71
2022/06/08 09:31:29;;;;;;;7.30;5.40;;;18.90;99.90;;;;;;5055990;28;20053;-69
2022/06/08 09:34:09;;;;;;;10.75;5.60;;;18.90;99.90;;;;;;5056084;28;20048;-73
2022/06/08 09:36:34;;;;;;;8.80;5.68;;;18.80;99.90;;;;;;5055288;28;20190;-71
2022/06/08 09:39:00;;;;;;;8.38;5.53;;;18.90;99.90;;;;;;5056124;28;20064;-71
2022/06/08 09:41:39;;;;;;;9.70;5.90;;;18.90;99.90;;;;;;5055865;28;20443;-69
2022/06/08 09:44:27;;;;;;;9.75;6.40;;;19.10;99.90;;;;;;5056176;28;20060;-72
2022/06/08 09:52:53;;;;;;;11.38;5.60;;;19.10;99.90;;;;;;5055831;28;20413;-70
2022/06/08 09:55:23;;;;;;;12.15;7.20;;;19.20;99.90;;;;;;5055906;28;20049;-70
2022/06/08 09:58:08;;;;;;;9.63;6.28;;;19.10;99.90;;;;;;5055868;28;20457;-72
2022/06/08 10:01:03;;;;;;;8.80;6.05;;;19.10;99.90;;;;;;5055599;28;20513;-72
2022/06/08 10:04:02;;;;;;;8.18;6.20;;;19.20;99.90;;;;;;5055040;28;20532;-72
2022/06/08 10:06:57;;;;;;;7.05;6.10;;;19.50;99.90;;;;;;5055013;28;20049;-69
2022/06/08 10:10:00;;;;;;;8.32;6.22;;;19.60;99.90;;;;;;5055519;28;20051;-74
2022/06/08 10:12:39;;;;;;;7.30;5.65;;;19.50;99.90;;;;;;5038169;28;20061;-75
2022/06/08 10:15:12;;;;;;;8.73;5.63;;;19.50;99.90;;;;;;5037707;28;20072;-71
2022/06/08 10:17:45;;;;;;;7.45;5.22;;;19.30;99.90;;;;;;5055312;28;20048;-69
2022/06/08 10:20:15;;;;;;;9.80;5.78;;;19.20;99.90;;;;;;5055427;28;20041;-71
2022/06/08 10:22:49;;;;;;;12.20;6.38;;;19.10;99.90;;;;;;5055316;28;20045;-69
2022/06/08 10:25:42;;;;;;;10.75;6.07;;;19.10;99.90;;;;;;5054522;28;20390;-71
2022/06/08 10:28:18;;;;;;;9.18;7.00;;;19.00;99.90;;;;;;5055259;28;20037;-72
2022/06/08 10:30:51;;;;;;;9.20;7.53;;;18.90;99.90;;;;;;5054980;28;20057;-71
2022/06/08 10:33:22;;;;;;;8.80;7.28;;;18.80;99.90;;;;;;5054936;28;20469;-73
2022/06/08 10:35:52;;;;;;;8.75;6.68;;;18.80;99.90;;;;;;5055099;28;20052;-70
2022/06/08 10:38:29;;;;;;;10.27;7.40;;;18.80;99.90;;;;;;5054302;28;20045;-71
2022/06/08 10:44:32;;;;;;;11.50;7.35;;;18.90;99.90;;;;;;5054974;28;20379;-70
2022/06/08 10:47:16;;;;;;;9.40;7.05;;;18.90;99.90;;;;;;5054769;28;20055;-71
2022/06/08 10:49:47;;;;;;;10.97;7.43;;;18.80;99.90;;;;;;5054833;28;20171;-72
2022/06/08 10:52:19;;;;;;;11.07;7.28;;;18.80;99.90;;;;;;5037894;28;20061;-73
2022/06/08 10:54:56;;;;;;;10.95;7.30;;;18.80;99.90;;;;;;5054236;28;20138;-71
2022/06/08 10:57:40;;;;;;;9.65;7.32;;;18.90;99.90;;;;;;5054992;28;20142;-69
2022/06/08 11:00:24;;;;;;;9.38;7.45;;;18.90;99.90;;;;;;5054485;28;20348;-72
2022/06/08 11:02:58;;;;;;;9.32;6.75;;;18.90;99.90;;;;;;5054858;28;20060;-69
2022/06/08 11:05:40;;;;;;;10.48;7.15;;;18.90;99.90;;;;;;5054856;28;20102;-70
2022/06/08 11:08:09;;;;;;;8.75;6.93;;;19.00;99.90;;;;;;5053618;28;20041;-69
2022/06/08 11:10:44;;;;;;;9.50;7.80;;;19.00;99.90;;;;;;5054674;28;20041;-70
2022/06/08 11:13:25;;;;;;;9.32;7.05;;;19.10;99.90;;;;;;5054477;28;20045;-70
2022/06/08 11:16:00;;;;;;;10.07;7.13;;;19.30;99.90;;;;;;5054661;28;20044;-73
2022/06/08 11:18:44;;;;;;;9.52;7.75;;;19.40;99.90;;;;;;5054841;28;20049;-73
2022/06/08 11:21:15;;;;;;;9.32;8.05;;;19.60;99.90;;;;;;5054290;28;20401;-70
2022/06/08 11:23:55;;;;;;;8.40;7.50;;;19.60;99.90;;;;;;5040687;28;20470;-71
2022/06/08 11:26:23;;;;;;;12.43;8.45;;;19.70;99.90;;;;;;5054366;28;20052;-71
2022/06/08 11:28:59;;;;;;;10.13;9.02;;;19.90;99.90;;;;;;5054294;28;20053;-69
2022/06/08 11:31:25;;;;;;;9.43;8.25;;;19.80;99.90;;;;;;5054411;28;20087;-70
2022/06/08 11:34:20;;;;;;;9.48;7.75;;;19.90;99.90;;;;;;5054144;28;20391;-72
2022/06/08 11:36:55;;;;;;;;;;;20.10;99.90;;;;;;5054261;28;20049;-69
2022/06/08 11:39:33;;;;;;;9.25;7.53;;;20.10;99.90;;;;;;5053967;28;20346;-71
2022/06/08 11:42:13;;;;;;;8.57;7.78;;;20.40;99.90;;;;;;5053859;28;20044;-70
2022/06/08 11:44:43;;;;;;;10.73;9.63;;;20.50;99.90;;;;;;5054394;28;20044;-70
2022/06/08 11:47:18;;;;;;;10.70;9.50;;;20.30;99.90;;;;;;5035824;28;20090;-71
2022/06/08 11:49:54;;;;;;;12.80;9.18;;;20.10;99.90;;;;;;5054167;28;20044;-70
2022/06/08 11:52:28;;;;;;;11.95;9.60;;;20.10;99.90;;;;;;5054344;28;20049;-73
2022/06/08 11:55:20;;;;;;;9.05;8.15;;;20.10;99.90;;;;;;5038458;28;20402;-72
2022/06/08 11:58:04;;;;;;;10.93;9.82;;;20.20;99.90;;;;;;5057499;28;20053;-69
2022/06/08 12:00:33;;;;;;;12.07;9.05;;;20.10;99.90;;;;;;5057973;28;20049;-69
2022/06/08 12:03:40;;;;;;;11.32;8.98;;;20.20;99.90;;;;;;5056573;28;20040;-70
2022/06/08 12:06:17;;;;;;;11.57;9.70;;;20.20;99.90;;;;;;5057793;28;20523;-71
2022/06/08 12:08:49;;;;;;;12.13;8.80;;;20.20;99.90;;;;;;5057705;28;20037;-71
2022/06/08 12:11:17;;;;;;;13.10;9.35;;;20.00;99.90;;;;;;5057706;28;20059;-74
2022/06/08 12:14:13;;;;;;;18.20;10.65;;;19.90;99.90;;;;;;5039886;28;20471;-73
2022/06/08 12:16:55;;;;;;;13.30;10.10;;;19.70;99.90;;;;;;5057018;28;20344;-69
2022/06/08 12:19:23;;;;;;;15.23;13.02;;;19.50;99.90;;;;;;5057454;28;20406;-72
2022/06/08 12:22:05;;;;;;;16.85;12.85;;;19.10;99.90;;;;;;5057883;28;20064;-71
2022/06/08 12:24:31;;;;;;;15.98;13.68;;;19.00;99.90;;;;;;5057792;28;20111;-71
2022/06/08 12:27:20;;;;;;;15.88;13.43;;;18.90;99.90;;;;;;5057159;28;20478;-74
2022/06/08 12:29:58;;;;;;;15.73;13.77;;;19.00;99.90;;;;;;5057569;28;20350;-74
2022/06/08 12:32:48;;;;;;;17.77;15.80;;;19.20;99.90;;;;;;5039588;28;20435;-75
2022/06/08 12:35:25;;;;;;;19.05;17.15;;;19.30;99.90;;;;;;5057683;28;20157;-74
2022/06/08 12:38:04;;;;;;;19.13;17.30;;;19.50;99.90;;;;;;5056609;28;20052;-72
2022/06/08 12:40:32;;;;;;;23.02;20.52;;;19.60;99.90;;;;;;5057416;28;20060;-74
2022/06/08 12:43:14;;;;;;;24.30;20.35;;;19.40;99.90;;;;;;5057332;28;20059;-71
2022/06/08 12:45:47;;;;;;;23.98;21.25;;;19.30;99.90;;;;;;5038708;28;20067;-71
2022/06/08 12:48:26;;;;;;;16.27;14.68;;;19.20;99.90;;;;;;5057023;28;20113;-72
2022/06/08 12:50:54;;;;;;;13.38;12.02;;;18.80;99.90;;;;;;5005871;28;20530;-72
2022/06/08 12:53:21;;;;;;;14.82;11.10;;;18.40;99.90;;;;;;5039311;28;20052;-71
2022/06/08 12:55:46;;;;;;;10.70;6.53;;;18.10;99.90;;;;;;5056754;28;20075;-72
2022/06/08 12:58:12;;;;;;;7.60;5.78;;;17.50;99.90;;;;;;5056880;28;20466;-70
2022/06/08 13:00:45;;;;;;;7.60;6.07;;;17.40;99.90;;;;;;5055644;28;20048;-71
2022/06/08 13:03:22;;;;;;;12.90;7.57;;;17.10;99.90;;;;;;5057012;28;20124;-70
2022/06/08 13:05:48;;;;;;;10.55;7.03;;;17.10;99.90;;;;;;5056387;28;20485;-71
2022/06/08 13:08:20;;;;;;;11.52;7.13;;;16.90;99.90;;;;;;5056806;28;20128;-74
2022/06/08 13:10:48;;;;;;;13.65;7.60;;;16.90;99.90;;;;;;5056945;28;20056;-70
2022/06/08 13:13:25;;;;;;;12.57;7.88;;;16.80;99.90;;;;;;5056374;28;20056;-70
2022/06/08 13:15:52;;;;;;;16.35;8.27;;;16.80;99.90;;;;;;5056662;28;20128;-71